Time;durP1;ratioP1;P1;durP2;ratioP2;P2;SDS_P1;SDS_P2;PMS_P1;PMS_P2;Temp;Humidity;BMP_temperature;BMP_pressure;BME280_temperature;BME280_humidity;BME280_pressure;Samples;Min_cycle;Max_cycle;Signal;HPM_P1;HPM_P2
2022/03/16 00:02:20;;;;;;;2.40;2.40;;;18.00;62.70;;;;;;5088019;27;43441;-69
2022/03/16 00:04:49;;;;;;;2.43;2.43;;;18.10;62.20;;;;;;5086935;27;44688;-69
2022/03/16 00:07:18;;;;;;;2.37;2.37;;;18.20;62.00;;;;;;5087262;27;44040;-68
2022/03/16 00:09:46;;;;;;;2.50;2.50;;;18.10;62.00;;;;;;5086772;28;43962;-69
2022/03/16 00:12:14;;;;;;;2.50;2.50;;;18.10;62.20;;;;;;5087436;28;43944;-68
2022/03/16 00:14:42;;;;;;;2.10;2.10;;;17.90;62.30;;;;;;5077764;27;44593;-69
2022/03/16 00:17:10;;;;;;;2.27;2.27;;;17.80;62.60;;;;;;5076967;28;44109;-69
2022/03/16 00:19:39;;;;;;;2.63;2.57;;;17.70;62.80;;;;;;5086387;27;44004;-68
2022/03/16 00:22:09;;;;;;;2.33;2.33;;;17.70;63.10;;;;;;5086094;28;43986;-69
2022/03/16 00:24:36;;;;;;;2.60;2.60;;;17.60;63.20;;;;;;5086389;28;43986;-68
2022/03/16 00:27:05;;;;;;;2.60;2.50;;;17.60;63.40;;;;;;5086478;28;43976;-69
2022/03/16 00:29:33;;;;;;;3.07;2.90;;;17.50;63.70;;;;;;5086205;27;43371;-69
2022/03/16 00:32:04;;;;;;;2.43;2.43;;;17.60;63.90;;;;;;5086067;28;44027;-68
2022/03/16 00:34:32;;;;;;;2.80;2.80;;;17.70;63.40;;;;;;5084756;28;45486;-69
2022/03/16 00:37:01;;;;;;;2.47;2.47;;;17.90;63.20;;;;;;5087119;27;43361;-68
2022/03/16 00:39:30;;;;;;;2.47;2.47;;;17.80;62.80;;;;;;5085765;27;43919;-68
2022/03/16 00:41:58;;;;;;;2.67;2.67;;;17.80;62.90;;;;;;5087644;28;43342;-68
2022/03/16 00:44:27;;;;;;;2.70;2.70;;;17.80;63.00;;;;;;5084953;28;46137;-68
2022/03/16 00:46:55;;;;;;;2.70;2.70;;;17.70;63.00;;;;;;5085394;28;44728;-68
2022/03/16 00:49:25;;;;;;;2.60;2.60;;;17.60;63.20;;;;;;5086729;27;43997;-68
2022/03/16 00:51:54;;;;;;;2.50;2.50;;;17.60;63.50;;;;;;5083951;28;44106;-70
2022/03/16 00:54:22;;;;;;;2.77;2.67;;;17.50;63.50;;;;;;5086216;27;44008;-68
2022/03/16 00:56:51;;;;;;;2.70;2.70;;;17.50;63.70;;;;;;5086311;28;43846;-68
2022/03/16 00:59:20;;;;;;;2.97;2.87;;;17.50;63.80;;;;;;5084809;28;44044;-68
2022/03/16 01:01:48;;;;;;;2.70;2.70;;;17.50;63.80;;;;;;5085551;28;44265;-69
2022/03/16 01:04:16;;;;;;;3.10;3.10;;;17.40;63.80;;;;;;5085529;27;43991;-68
2022/03/16 01:06:49;;;;;;;2.70;2.70;;;17.40;64.10;;;;;;5086124;27;43963;-69
2022/03/16 01:09:19;;;;;;;2.87;2.77;;;17.60;64.00;;;;;;5084639;27;43966;-69
2022/03/16 01:11:47;;;;;;;2.67;2.67;;;17.80;63.50;;;;;;5086165;28;43970;-68
2022/03/16 01:14:17;;;;;;;2.70;2.70;;;18.00;62.90;;;;;;5085207;27;44394;-68
2022/03/16 01:16:45;;;;;;;2.83;2.83;;;18.10;62.40;;;;;;5084474;28;44045;-68
2022/03/16 01:19:14;;;;;;;2.50;2.50;;;18.10;62.10;;;;;;5084453;27;43861;-67
2022/03/16 01:21:43;;;;;;;2.67;2.67;;;18.10;62.90;;;;;;5086194;28;43938;-68
2022/03/16 01:24:11;;;;;;;2.60;2.60;;;18.00;62.30;;;;;;5086217;28;44120;-68
2022/03/16 01:26:39;;;;;;;2.57;2.57;;;17.90;62.50;;;;;;5084983;28;43816;-68
2022/03/16 01:29:07;;;;;;;2.67;2.67;;;17.80;62.80;;;;;;5084540;28;43956;-68
2022/03/16 01:31:37;;;;;;;2.60;2.60;;;17.70;62.90;;;;;;5084384;27;44037;-69
2022/03/16 01:34:05;;;;;;;2.83;2.83;;;17.60;63.10;;;;;;5084189;28;46156;-68
2022/03/16 01:36:33;;;;;;;2.70;2.70;;;17.60;63.30;;;;;;5082197;28;44961;-68
2022/03/16 01:39:01;;;;;;;2.70;2.70;;;17.60;63.50;;;;;;5084148;28;43943;-68
2022/03/16 01:41:29;;;;;;;3.00;3.00;;;17.50;63.70;;;;;;5085962;27;43827;-68
2022/03/16 01:43:58;;;;;;;2.60;2.60;;;17.50;63.80;;;;;;5086157;28;43981;-69
2022/03/16 01:46:29;;;;;;;2.90;2.90;;;17.70;63.60;;;;;;5084219;28;45827;-68
2022/03/16 01:48:59;;;;;;;3.00;3.00;;;17.80;63.10;;;;;;5085816;27;43355;-68
2022/03/16 01:51:27;;;;;;;2.80;2.80;;;17.80;62.80;;;;;;5084385;28;43966;-68
2022/03/16 01:53:57;;;;;;;2.60;2.60;;;17.80;62.90;;;;;;5085818;27;43617;-68
2022/03/16 01:56:25;;;;;;;3.07;3.07;;;17.80;63.00;;;;;;5083942;28;45535;-68
2022/03/16 01:58:53;;;;;;;2.90;2.90;;;17.70;63.00;;;;;;5084322;28;44181;-69
2022/03/16 02:01:21;;;;;;;3.07;2.97;;;17.60;63.20;;;;;;5084741;28;43969;-69
2022/03/16 02:03:50;;;;;;;3.07;3.07;;;17.60;63.50;;;;;;5083515;27;44758;-68
2022/03/16 02:06:19;;;;;;;3.20;3.10;;;17.50;63.50;;;;;;5084184;28;44878;-68
2022/03/16 02:08:47;;;;;;;3.27;3.17;;;17.50;63.60;;;;;;5085153;28;43965;-69
2022/03/16 02:11:15;;;;;;;3.10;3.00;;;17.50;63.80;;;;;;5085659;27;43931;-68
2022/03/16 02:13:43;;;;;;;2.90;2.90;;;17.40;63.70;;;;;;5085103;28;43910;-69
2022/03/16 02:16:12;;;;;;;3.17;3.10;;;17.40;63.80;;;;;;5086406;27;44020;-69
2022/03/16 02:18:40;;;;;;;3.47;3.37;;;17.40;64.10;;;;;;5088548;28;44024;-68
2022/03/16 02:21:08;;;;;;;3.40;3.30;;;17.50;64.10;;;;;;5089530;27;44073;-69
2022/03/16 02:23:37;;;;;;;3.30;3.20;;;17.60;63.70;;;;;;5087936;28;43884;-68
2022/03/16 02:26:06;;;;;;;3.17;3.17;;;17.80;63.20;;;;;;5088680;28;44001;-69
2022/03/16 02:28:34;;;;;;;3.20;3.13;;;18.00;62.70;;;;;;5088574;28;43900;-68
2022/03/16 02:31:01;;;;;;;3.47;3.37;;;18.10;62.20;;;;;;5089389;28;43906;-68
2022/03/16 02:33:30;;;;;;;3.40;3.30;;;18.20;62.00;;;;;;5060285;28;45402;-68
2022/03/16 02:35:58;;;;;;;2.90;2.90;;;18.10;62.10;;;;;;5063159;28;43345;-69
2022/03/16 02:38:26;;;;;;;3.27;3.17;;;18.00;62.30;;;;;;5062391;28;43941;-69
2022/03/16 02:40:55;;;;;;;3.10;3.10;;;17.90;62.50;;;;;;5062778;28;44038;-68
2022/03/16 02:43:24;;;;;;;3.57;3.47;;;17.80;62.70;;;;;;5062529;28;45092;-68
2022/03/16 02:45:52;;;;;;;3.20;3.20;;;17.70;63.00;;;;;;5062733;28;43906;-69
2022/03/16 02:48:20;;;;;;;3.87;3.70;;;17.60;63.10;;;;;;5067519;28;43920;-68
2022/03/16 02:50:48;;;;;;;3.60;3.50;;;17.60;63.30;;;;;;5069223;28;44179;-68
2022/03/16 02:53:16;;;;;;;3.33;3.23;;;17.60;63.50;;;;;;5068762;28;43959;-68
2022/03/16 02:55:51;;;;;;;3.23;3.20;;;17.50;63.80;;;;;;5068786;28;43947;-69
2022/03/16 02:58:20;;;;;;;3.70;3.60;;;17.60;63.90;;;;;;5067474;28;43808;-69
2022/03/16 03:00:48;;;;;;;2.93;2.93;;;17.70;63.40;;;;;;5076538;28;43837;-69
2022/03/16 03:03:17;;;;;;;3.33;3.20;;;17.80;63.00;;;;;;5088374;27;43971;-68
2022/03/16 03:05:45;;;;;;;3.33;3.30;;;17.80;62.80;;;;;;5087367;27;43989;-69
2022/03/16 03:08:13;;;;;;;3.00;3.00;;;17.80;62.90;;;;;;5086806;28;43932;-68
2022/03/16 03:10:41;;;;;;;3.50;3.40;;;17.70;62.90;;;;;;5087834;27;43986;-68
2022/03/16 03:13:09;;;;;;;3.20;3.10;;;17.70;63.20;;;;;;5087985;28;43575;-68
2022/03/16 03:15:38;;;;;;;2.80;2.80;;;17.60;63.30;;;;;;5087701;28;44083;-68
2022/03/16 03:18:08;;;;;;;3.20;3.10;;;17.60;63.50;;;;;;5086477;28;44024;-68
2022/03/16 03:20:36;;;;;;;3.43;3.33;;;17.50;63.60;;;;;;5087908;28;43883;-68
2022/03/16 03:23:04;;;;;;;3.30;3.20;;;17.50;63.80;;;;;;5087821;28;43947;-68
2022/03/16 03:25:32;;;;;;;2.97;2.97;;;17.40;63.70;;;;;;5087164;28;43366;-69
2022/03/16 03:28:00;;;;;;;2.70;2.70;;;17.40;63.80;;;;;;5087071;27;44017;-69
2022/03/16 03:30:28;;;;;;;3.50;3.40;;;17.40;63.90;;;;;;5087905;27;43432;-68
2022/03/16 03:32:57;;;;;;;3.40;3.30;;;17.40;64.10;;;;;;5087866;28;45140;-68
2022/03/16 03:35:25;;;;;;;3.20;3.17;;;17.50;64.10;;;;;;5086066;28;45300;-69
2022/03/16 03:37:54;;;;;;;3.47;3.37;;;17.70;63.70;;;;;;5087778;27;43974;-69
2022/03/16 03:40:22;;;;;;;3.23;3.20;;;17.90;63.10;;;;;;5088397;28;43317;-69
2022/03/16 03:42:51;;;;;;;3.20;3.10;;;18.10;62.60;;;;;;5087778;27;44618;-69
2022/03/16 03:45:19;;;;;;;3.13;3.03;;;18.10;62.10;;;;;;5087290;27;43997;-68
2022/03/16 03:47:47;;;;;;;2.80;2.80;;;18.10;62.00;;;;;;5078581;28;43842;-68
2022/03/16 03:50:17;;;;;;;2.97;2.87;;;18.00;62.10;;;;;;5066896;28;44144;-69
2022/03/16 03:52:45;;;;;;;3.10;3.10;;;17.90;62.20;;;;;;5067323;28;44003;-68
2022/03/16 03:55:12;;;;;;;2.70;2.70;;;17.80;62.50;;;;;;5068130;28;43354;-69
2022/03/16 03:57:40;;;;;;;3.20;3.10;;;17.70;62.80;;;;;;5067802;28;44014;-69
2022/03/16 04:00:09;;;;;;;2.97;2.93;;;17.70;63.10;;;;;;5068092;28;43397;-68
2022/03/16 04:02:40;;;;;;;2.80;2.80;;;17.60;63.30;;;;;;5067433;28;44916;-69
2022/03/16 04:05:09;;;;;;;2.73;2.73;;;17.50;63.40;;;;;;5066550;28;45105;-68
2022/03/16 04:07:38;;;;;;;3.40;3.30;;;17.50;63.50;;;;;;5067749;28;43915;-69
2022/03/16 04:10:07;;;;;;;3.10;3.10;;;17.50;64.00;;;;;;5067862;28;44011;-68
2022/03/16 04:12:35;;;;;;;3.03;3.03;;;17.60;63.90;;;;;;5071173;28;44087;-69
2022/03/16 04:15:04;;;;;;;3.00;3.00;;;17.70;63.30;;;;;;5087164;28;43447;-69
2022/03/16 04:17:31;;;;;;;3.13;3.03;;;17.80;63.10;;;;;;5086696;28;43602;-69
2022/03/16 04:20:00;;;;;;;2.80;2.80;;;17.80;63.00;;;;;;5087794;27;43412;-69
2022/03/16 04:22:28;;;;;;;3.07;3.07;;;17.70;63.00;;;;;;5086529;28;43997;-69
2022/03/16 04:25:03;;;;;;;2.90;2.80;;;17.70;63.10;;;;;;5087418;27;43810;-67
2022/03/16 04:27:31;;;;;;;3.17;3.10;;;17.60;63.30;;;;;;5084583;28;43970;-68
2022/03/16 04:29:59;;;;;;;3.03;3.03;;;17.50;63.50;;;;;;5082263;28;43998;-69
2022/03/16 04:32:27;;;;;;;3.10;3.10;;;17.50;63.70;;;;;;5067106;28;43953;-68
2022/03/16 04:34:54;;;;;;;2.80;2.80;;;17.40;63.80;;;;;;5067812;28;43959;-67
2022/03/16 04:37:22;;;;;;;3.00;3.00;;;17.40;63.90;;;;;;5067350;28;43953;-69
2022/03/16 04:39:50;;;;;;;2.80;2.70;;;17.40;64.00;;;;;;5067229;28;43968;-68
2022/03/16 04:42:20;;;;;;;2.53;2.53;;;17.40;64.10;;;;;;5072029;28;45005;-69
2022/03/16 04:44:47;;;;;;;3.03;3.03;;;17.40;64.20;;;;;;5086302;28;43860;-69
2022/03/16 04:47:15;;;;;;;3.00;3.00;;;17.40;64.50;;;;;;5087070;28;44450;-69
2022/03/16 04:49:43;;;;;;;3.00;3.00;;;17.50;64.30;;;;;;5085267;28;44335;-68
2022/03/16 04:52:11;;;;;;;2.90;2.90;;;17.70;63.80;;;;;;5074245;27;43999;-68
2022/03/16 04:54:39;;;;;;;2.90;2.90;;;17.90;63.20;;;;;;5066446;28;43876;-68
2022/03/16 04:57:07;;;;;;;2.90;2.90;;;18.00;62.60;;;;;;5066789;28;43868;-69
2022/03/16 04:59:36;;;;;;;3.07;3.07;;;18.10;62.30;;;;;;5067603;28;44237;-68
2022/03/16 05:02:05;;;;;;;2.90;2.80;;;18.10;62.20;;;;;;5066734;28;44003;-69
2022/03/16 05:04:33;;;;;;;2.80;2.80;;;18.00;62.20;;;;;;5066242;28;43944;-68
2022/03/16 05:07:02;;;;;;;2.80;2.80;;;17.90;62.50;;;;;;5065150;28;44009;-68
2022/03/16 05:09:30;;;;;;;2.77;2.77;;;17.80;62.70;;;;;;5065217;28;43589;-69
2022/03/16 05:11:58;;;;;;;2.70;2.70;;;17.70;63.00;;;;;;5066743;28;43977;-68
2022/03/16 05:14:26;;;;;;;2.87;2.80;;;17.60;63.10;;;;;;5066594;28;44140;-68
2022/03/16 05:16:56;;;;;;;2.63;2.63;;;17.60;63.30;;;;;;5066766;27;44164;-68
2022/03/16 05:19:26;;;;;;;2.80;2.80;;;17.50;63.40;;;;;;5058589;28;43567;-68
2022/03/16 05:21:54;;;;;;;3.17;3.10;;;17.50;63.50;;;;;;5059855;28;43942;-68
2022/03/16 05:24:22;;;;;;;3.03;2.93;;;17.50;64.00;;;;;;5060317;28;43966;-68
2022/03/16 05:26:50;;;;;;;3.00;3.00;;;17.60;63.80;;;;;;5060008;28;43913;-69
2022/03/16 05:29:18;;;;;;;3.00;3.00;;;17.80;63.40;;;;;;5066982;28;43975;-69
2022/03/16 05:31:46;;;;;;;3.27;3.17;;;17.80;62.90;;;;;;5065790;28;43953;-69
2022/03/16 05:34:15;;;;;;;2.90;2.90;;;17.80;62.90;;;;;;5066566;28;43974;-69
2022/03/16 05:36:43;;;;;;;2.90;2.90;;;17.80;62.90;;;;;;5064261;28;43986;-69
2022/03/16 05:39:11;;;;;;;2.77;2.77;;;17.70;63.00;;;;;;5066737;28;43867;-68
2022/03/16 05:41:39;;;;;;;2.80;2.80;;;17.60;63.10;;;;;;5066030;28;43939;-68
2022/03/16 05:44:09;;;;;;;2.83;2.83;;;17.60;63.40;;;;;;5073378;28;43978;-69
2022/03/16 05:46:37;;;;;;;2.97;2.87;;;17.50;63.50;;;;;;5085290;27;44027;-69
2022/03/16 05:49:05;;;;;;;2.70;2.70;;;17.50;63.70;;;;;;5086544;27;44276;-68
2022/03/16 05:51:34;;;;;;;2.93;2.83;;;17.40;63.70;;;;;;5084518;27;44702;-69
2022/03/16 05:54:02;;;;;;;2.60;2.60;;;17.40;63.80;;;;;;5085321;28;44213;-69
2022/03/16 05:56:31;;;;;;;2.77;2.77;;;17.40;63.80;;;;;;5069358;28;43984;-69
2022/03/16 05:58:59;;;;;;;3.40;3.30;;;17.40;63.90;;;;;;5086804;27;43949;-69
2022/03/16 06:01:27;;;;;;;3.47;3.37;;;17.40;64.20;;;;;;5086025;28;44272;-69
2022/03/16 06:03:56;;;;;;;3.30;3.20;;;17.50;64.10;;;;;;5086007;27;43979;-69
2022/03/16 06:06:23;;;;;;;3.03;2.93;;;17.70;63.60;;;;;;5086204;28;44005;-69
2022/03/16 06:08:53;;;;;;;3.23;3.20;;;17.90;63.10;;;;;;5086615;28;43489;-69
2022/03/16 06:11:21;;;;;;;2.93;2.93;;;18.10;62.50;;;;;;5077795;27;43606;-68
2022/03/16 06:13:49;;;;;;;3.27;3.27;;;18.10;62.10;;;;;;5066023;28;43864;-69
2022/03/16 06:16:17;;;;;;;3.20;3.10;;;18.10;62.00;;;;;;5066495;28;44044;-68
2022/03/16 06:18:44;;;;;;;3.20;3.10;;;18.00;62.20;;;;;;5066509;28;44063;-68
2022/03/16 06:21:12;;;;;;;3.20;3.10;;;17.90;62.30;;;;;;5066298;28;45004;-69
2022/03/16 06:23:40;;;;;;;3.20;3.10;;;17.80;62.60;;;;;;5065943;28;44260;-68
2022/03/16 06:26:11;;;;;;;3.27;3.17;;;17.70;62.90;;;;;;5065857;28;44052;-68
2022/03/16 06:28:39;;;;;;;3.40;3.30;;;17.60;63.10;;;;;;5066235;28;43406;-68
2022/03/16 06:31:07;;;;;;;3.20;3.10;;;17.60;63.30;;;;;;5064515;28;47316;-68
2022/03/16 06:33:35;;;;;;;3.30;3.20;;;17.50;63.40;;;;;;5064866;28;45043;-69
2022/03/16 06:36:03;;;;;;;3.47;3.37;;;17.50;63.50;;;;;;5066523;28;43360;-69
2022/03/16 06:38:31;;;;;;;3.80;3.70;;;17.50;64.00;;;;;;5066278;28;44119;-68
2022/03/16 06:40:59;;;;;;;4.03;3.93;;;17.60;63.90;;;;;;5066041;28;43768;-69
2022/03/16 06:43:28;;;;;;;3.60;3.50;;;17.70;63.40;;;;;;5066028;28;43928;-69
2022/03/16 06:45:56;;;;;;;3.77;3.67;;;17.80;63.10;;;;;;5066392;28;44011;-69
2022/03/16 06:48:24;;;;;;;3.63;3.53;;;17.80;62.90;;;;;;5066237;28;44008;-68
2022/03/16 06:50:52;;;;;;;3.67;3.57;;;17.70;62.90;;;;;;5066021;28;43971;-68
2022/03/16 06:53:20;;;;;;;3.67;3.57;;;17.70;63.10;;;;;;5065393;28;44074;-69
2022/03/16 06:55:48;;;;;;;3.97;3.87;;;17.60;63.20;;;;;;5065879;28;43962;-68
2022/03/16 06:58:16;;;;;;;4.10;4.00;;;17.60;63.40;;;;;;5066486;28;43347;-68
2022/03/16 07:00:45;;;;;;;4.10;4.00;;;17.50;63.50;;;;;;5065566;28;43922;-68
2022/03/16 07:03:13;;;;;;;3.70;3.60;;;17.50;63.70;;;;;;5066724;28;43892;-68
2022/03/16 07:05:42;;;;;;;4.37;4.27;;;17.40;63.70;;;;;;5069262;28;43384;-68
2022/03/16 07:08:10;;;;;;;4.07;3.97;;;17.40;63.70;;;;;;5069445;28;44266;-68
2022/03/16 07:10:40;;;;;;;4.07;3.97;;;17.40;63.80;;;;;;5068728;28;43899;-68
2022/03/16 07:13:11;;;;;;;4.00;3.90;;;17.40;63.90;;;;;;5069185;28;43964;-69
2022/03/16 07:15:39;;;;;;;4.00;3.90;;;17.40;64.20;;;;;;5069238;28;43769;-69
2022/03/16 07:18:09;;;;;;;4.13;4.03;;;17.50;64.10;;;;;;5068190;28;43407;-68
2022/03/16 07:20:37;;;;;;;4.03;3.93;;;17.70;63.60;;;;;;5068233;28;45308;-69
2022/03/16 07:23:06;;;;;;;4.37;4.27;;;17.90;63.10;;;;;;5069036;28;43743;-69
2022/03/16 07:25:36;;;;;;;4.47;4.37;;;18.00;62.60;;;;;;5066480;28;44049;-68
2022/03/16 07:28:05;;;;;;;4.17;4.07;;;18.00;62.30;;;;;;5067660;28;43977;-68
2022/03/16 07:30:33;;;;;;;4.27;4.07;;;18.00;62.30;;;;;;5068241;28;43970;-69
2022/03/16 07:33:01;;;;;;;4.03;3.93;;;17.90;62.50;;;;;;5068527;28;43911;-69
2022/03/16 07:35:31;;;;;;;4.10;4.00;;;17.80;62.60;;;;;;5068612;28;43347;-68
2022/03/16 07:38:01;;;;;;;4.73;4.63;;;17.70;63.60;;;;;;5073984;28;43947;-69
2022/03/16 07:40:30;;;;;;;4.17;4.07;;;17.60;63.10;;;;;;5087862;27;43938;-68
2022/03/16 07:42:58;;;;;;;4.80;4.60;;;17.60;63.30;;;;;;5088262;28;43802;-68
2022/03/16 07:45:26;;;;;;;4.80;4.53;;;17.50;63.40;;;;;;5086551;28;44018;-68
2022/03/16 07:47:55;;;;;;;4.27;4.17;;;17.50;63.60;;;;;;5088372;28;44263;-69
2022/03/16 07:50:24;;;;;;;4.40;4.30;;;17.50;63.70;;;;;;5088058;27;43611;-68
2022/03/16 07:52:53;;;;;;;4.43;4.33;;;17.40;64.00;;;;;;5087965;28;43936;-68
2022/03/16 07:55:21;;;;;;;4.50;4.40;;;17.60;64.00;;;;;;5087869;27;43987;-68
2022/03/16 07:57:49;;;;;;;5.17;5.07;;;17.70;63.40;;;;;;5088220;27;44124;-69
2022/03/16 08:00:18;;;;;;;4.97;4.77;;;17.80;63.20;;;;;;5086040;28;45998;-69
2022/03/16 08:02:46;;;;;;;4.80;4.60;;;17.70;62.90;;;;;;5087208;27;43343;-68
2022/03/16 08:05:16;;;;;;;4.70;4.50;;;17.70;63.00;;;;;;5087912;27;43994;-69
2022/03/16 08:07:44;;;;;;;4.57;4.37;;;17.70;63.10;;;;;;5087032;28;43912;-68
2022/03/16 08:10:13;;;;;;;4.80;4.60;;;17.60;63.20;;;;;;5087779;28;44833;-69
2022/03/16 08:12:41;;;;;;;4.67;4.47;;;17.50;63.40;;;;;;5087201;28;43977;-68
2022/03/16 08:15:09;;;;;;;4.73;4.63;;;17.50;63.60;;;;;;5087017;27;43328;-69
2022/03/16 08:17:37;;;;;;;4.93;4.83;;;17.50;63.70;;;;;;5087820;28;43758;-68
2022/03/16 08:20:06;;;;;;;4.70;4.53;;;17.40;63.70;;;;;;5087506;27;44310;-69
2022/03/16 08:22:35;;;;;;;4.70;4.50;;;17.40;63.90;;;;;;5062549;28;44713;-68
2022/03/16 08:25:05;;;;;;;4.83;4.63;;;17.40;64.00;;;;;;5061546;28;43979;-68
2022/03/16 08:27:34;;;;;;;4.90;4.80;;;17.40;64.00;;;;;;5061369;28;43945;-69
2022/03/16 08:30:02;;;;;;;4.93;4.73;;;17.40;64.40;;;;;;5062892;28;45923;-69
2022/03/16 08:32:30;;;;;;;5.30;5.10;;;17.50;64.30;;;;;;5067492;28;43975;-68
2022/03/16 08:34:58;;;;;;;5.57;5.37;;;17.70;63.80;;;;;;5068060;28;43999;-68
2022/03/16 08:37:26;;;;;;;5.10;4.90;;;17.90;63.20;;;;;;5068156;28;43303;-69
2022/03/16 08:39:54;;;;;;;4.93;4.73;;;18.00;62.60;;;;;;5067114;28;43926;-69
2022/03/16 08:42:22;;;;;;;4.80;4.70;;;18.10;62.20;;;;;;5066907;28;44127;-69
2022/03/16 08:44:53;;;;;;;4.93;4.73;;;18.10;62.20;;;;;;5067170;28;43896;-68
2022/03/16 08:47:21;;;;;;;5.17;4.97;;;18.00;62.30;;;;;;5067762;28;43470;-69
2022/03/16 08:49:50;;;;;;;5.37;5.17;;;17.90;62.40;;;;;;5067222;28;43619;-68
2022/03/16 08:52:18;;;;;;;5.17;4.97;;;17.80;63.50;;;;;;5065580;28;45141;-69
2022/03/16 08:54:45;;;;;;;5.30;5.10;;;17.70;63.00;;;;;;5066934;28;44007;-69
2022/03/16 08:57:14;;;;;;;5.40;5.20;;;17.60;63.20;;;;;;5067774;28;43493;-68
2022/03/16 08:59:42;;;;;;;5.10;4.90;;;17.60;63.40;;;;;;5065722;28;46181;-68
2022/03/16 09:02:11;;;;;;;5.63;5.43;;;17.50;63.50;;;;;;5066059;28;45254;-68
2022/03/16 09:04:39;;;;;;;5.23;5.07;;;17.50;63.60;;;;;;5067294;28;43966;-69
2022/03/16 09:07:07;;;;;;;5.80;5.60;;;17.50;64.00;;;;;;5066819;28;43477;-69
2022/03/16 09:09:39;;;;;;;5.40;5.20;;;17.50;63.80;;;;;;5067138;28;43994;-68
2022/03/16 09:12:08;;;;;;;5.83;5.53;;;17.70;63.40;;;;;;5067435;28;43815;-69
2022/03/16 09:14:36;;;;;;;5.23;5.03;;;17.80;63.10;;;;;;5067381;28;44285;-68
2022/03/16 09:17:04;;;;;;;5.37;5.17;;;17.80;63.00;;;;;;5068083;28;44062;-68
2022/03/16 09:19:34;;;;;;;5.23;5.03;;;17.70;63.00;;;;;;5066599;28;44933;-68
2022/03/16 09:22:04;;;;;;;5.57;5.30;;;17.70;63.20;;;;;;5067165;28;43466;-68
2022/03/16 09:24:32;;;;;;;5.30;5.10;;;17.60;63.30;;;;;;5065269;28;44013;-68
2022/03/16 09:27:01;;;;;;;5.03;4.83;;;17.50;63.40;;;;;;5065488;28;43964;-69
2022/03/16 09:29:29;;;;;;;5.63;5.43;;;17.50;63.60;;;;;;5066751;28;44138;-68
2022/03/16 09:32:07;;;;;;;5.40;5.20;;;17.50;63.80;;;;;;5066922;28;44034;-68
2022/03/16 09:34:36;;;;;;;5.57;5.37;;;17.40;63.80;;;;;;5066670;28;43398;-68
2022/03/16 09:37:05;;;;;;;4.90;4.70;;;17.40;63.90;;;;;;5065679;28;43397;-68
2022/03/16 09:39:33;;;;;;;5.30;5.10;;;17.40;64.00;;;;;;5066304;28;43981;-69
2022/03/16 09:42:03;;;;;;;5.60;5.40;;;17.40;64.10;;;;;;5066761;28;44085;-68
2022/03/16 09:44:31;;;;;;;5.73;5.43;;;17.40;64.40;;;;;;5066583;28;43362;-69
2022/03/16 09:47:00;;;;;;;5.30;5.20;;;17.50;64.20;;;;;;5067639;28;44010;-68
2022/03/16 09:49:28;;;;;;;5.47;5.27;;;17.70;63.70;;;;;;5066390;28;44065;-70
2022/03/16 09:51:58;;;;;;;5.33;5.13;;;17.90;63.30;;;;;;5066548;28;43771;-68
2022/03/16 09:54:26;;;;;;;5.30;5.10;;;18.00;62.60;;;;;;5065140;28;44066;-68
2022/03/16 09:56:55;;;;;;;4.83;4.70;;;18.10;62.40;;;;;;5067335;28;43927;-69
2022/03/16 09:59:23;;;;;;;5.40;5.20;;;18.00;62.10;;;;;;5066608;28;43953;-69
2022/03/16 10:01:58;;;;;;;5.33;5.13;;;18.00;62.30;;;;;;5066489;28;43971;-69
2022/03/16 10:04:30;;;;;;;5.00;4.80;;;17.90;62.60;;;;;;5086064;28;44072;-68
2022/03/16 10:07:00;;;;;;;5.53;5.33;;;17.80;62.90;;;;;;5086843;27;43438;-69
2022/03/16 10:15:10;;;;;;;5.00;4.80;;;17.50;63.50;;;;;;5084339;28;43458;-69
2022/03/16 10:17:44;;;;;;;5.30;5.10;;;17.50;63.60;;;;;;5085766;27;43438;-69
2022/03/16 10:20:20;;;;;;;5.00;4.80;;;17.40;63.80;;;;;;5056906;28;45967;-69
2022/03/16 10:23:01;;;;;;;5.40;5.17;;;17.50;64.10;;;;;;5065980;28;43991;-68
2022/03/16 10:25:30;;;;;;;5.47;5.17;;;17.60;63.70;;;;;;5066329;28;43889;-68
2022/03/16 10:28:13;;;;;;;4.90;4.77;;;17.70;63.30;;;;;;5066943;28;43900;-68
2022/03/16 10:30:55;;;;;;;4.60;4.43;;;17.70;63.00;;;;;;5065889;28;43968;-68
2022/03/16 10:33:25;;;;;;;4.40;4.30;;;17.70;63.00;;;;;;5066067;28;44153;-69
2022/03/16 10:35:58;;;;;;;5.10;4.90;;;17.70;63.20;;;;;;5066202;28;43953;-68
2022/03/16 10:38:27;;;;;;;4.97;4.77;;;17.60;64.10;;;;;;5069789;28;44029;-68
2022/03/16 10:40:56;;;;;;;5.23;5.03;;;17.50;63.50;;;;;;5069737;28;44031;-68
2022/03/16 10:49:00;;;;;;;5.10;4.70;;;17.40;63.80;;;;;;5088208;28;44278;-69
2022/03/16 10:51:28;;;;;;;5.00;4.80;;;17.40;64.00;;;;;;5087275;28;45855;-68
2022/03/16 10:54:17;;;;;;;4.50;4.40;;;17.40;64.10;;;;;;5088716;27;43959;-69
2022/03/16 10:56:47;;;;;;;4.53;4.43;;;17.40;64.20;;;;;;5077815;28;44063;-69
2022/03/16 10:59:15;;;;;;;4.87;4.67;;;17.40;64.40;;;;;;5069824;28;43585;-69
2022/03/16 11:01:44;;;;;;;5.00;4.80;;;17.50;64.20;;;;;;5069089;28;43950;-68
2022/03/16 11:04:12;;;;;;;4.50;4.30;;;17.70;63.70;;;;;;5069402;28;43410;-69
2022/03/16 11:06:40;;;;;;;5.10;4.90;;;17.90;63.20;;;;;;5069227;28;44053;-69
2022/03/16 11:09:10;;;;;;;4.33;4.03;;;18.00;62.70;;;;;;5089817;27;43935;-69
2022/03/16 11:14:24;;;;;;;4.47;4.37;;;18.00;62.40;;;;;;5071016;27;44761;-69
2022/03/16 11:16:53;;;;;;;4.40;4.30;;;17.90;62.50;;;;;;5089511;27;43833;-69
2022/03/16 11:19:22;;;;;;;4.53;4.43;;;17.80;62.80;;;;;;5089693;27;43447;-68
2022/03/16 11:21:54;;;;;;;4.37;4.27;;;17.70;63.00;;;;;;5070570;27;46374;-68
2022/03/16 11:24:24;;;;;;;4.27;4.07;;;17.60;63.30;;;;;;5088984;27;44113;-69
2022/03/16 11:27:03;;;;;;;4.40;4.30;;;17.60;63.50;;;;;;5088931;27;43879;-68
2022/03/16 11:29:38;;;;;;;4.63;4.50;;;17.50;63.70;;;;;;5089462;27;43971;-68
2022/03/16 11:32:09;;;;;;;4.10;4.00;;;17.50;63.90;;;;;;5088668;27;44030;-68
2022/03/16 11:34:37;;;;;;;4.17;4.03;;;17.40;63.90;;;;;;5088604;27;43863;-69
2022/03/16 11:37:07;;;;;;;4.13;4.03;;;17.40;64.30;;;;;;5089096;27;43947;-69
2022/03/16 11:39:42;;;;;;;4.43;4.33;;;17.60;64.20;;;;;;5088813;27;44009;-69
2022/03/16 11:42:13;;;;;;;3.80;3.70;;;17.70;63.60;;;;;;5088877;27;44165;-68
2022/03/16 11:44:41;;;;;;;4.03;3.93;;;17.70;63.30;;;;;;5088433;27;43472;-68
2022/03/16 11:47:33;;;;;;;4.03;3.93;;;17.70;63.20;;;;;;5082356;27;43410;-68
2022/03/16 11:50:11;;;;;;;4.30;4.20;;;17.70;63.30;;;;;;5088134;27;44057;-69
2022/03/16 11:53:00;;;;;;;4.20;4.10;;;17.60;63.50;;;;;;5087735;27;43948;-68
2022/03/16 11:55:42;;;;;;;4.13;4.00;;;17.50;63.70;;;;;;5088869;27;43923;-69
2022/03/16 11:58:25;;;;;;;3.97;3.87;;;17.40;63.80;;;;;;5088415;27;44039;-69
2022/03/16 12:01:09;;;;;;;4.20;4.10;;;17.40;64.00;;;;;;5070586;28;44004;-68
2022/03/16 12:03:43;;;;;;;3.70;3.60;;;17.40;64.10;;;;;;5087013;27;44159;-69
2022/03/16 12:06:12;;;;;;;4.20;3.90;;;17.40;64.30;;;;;;5088619;27;44118;-68
2022/03/16 12:08:51;;;;;;;3.77;3.67;;;17.40;64.40;;;;;;5070038;27;44023;-69
2022/03/16 12:14:06;;;;;;;4.07;3.97;;;17.40;64.80;;;;;;5088841;27;43832;-68
2022/03/16 12:16:41;;;;;;;3.70;3.60;;;17.50;64.60;;;;;;5088197;27;43963;-69
2022/03/16 12:19:29;;;;;;;3.83;3.73;;;17.70;64.10;;;;;;5088182;27;43946;-68
2022/03/16 12:21:57;;;;;;;3.37;3.27;;;17.90;63.40;;;;;;5088790;27;43885;-69
2022/03/16 12:30:12;;;;;;;3.77;3.67;;;18.00;62.40;;;;;;5049235;27;44066;-68
2022/03/16 12:32:40;;;;;;;3.53;3.43;;;17.90;62.60;;;;;;5108023;27;44303;-69
2022/03/16 12:35:09;;;;;;;3.30;3.20;;;17.80;62.90;;;;;;5107510;27;43891;-69
2022/03/16 12:37:48;;;;;;;3.60;3.50;;;17.70;63.20;;;;;;5107368;27;43942;-69
2022/03/16 12:40:16;;;;;;;3.40;3.30;;;17.60;64.10;;;;;;5088873;27;43375;-68
2022/03/16 12:42:43;;;;;;;3.20;3.10;;;17.60;63.60;;;;;;5106904;27;43523;-69
2022/03/16 12:45:13;;;;;;;3.57;3.47;;;17.50;63.80;;;;;;5107522;27;43917;-69
2022/03/16 12:47:42;;;;;;;3.47;3.37;;;17.50;63.90;;;;;;5088577;27;44445;-69
2022/03/16 12:50:14;;;;;;;3.70;3.60;;;17.50;64.10;;;;;;5107989;27;43984;-69
2022/03/16 12:52:50;;;;;;;3.60;3.50;;;17.50;64.40;;;;;;5107543;27;43462;-69
2022/03/16 12:55:19;;;;;;;3.40;3.30;;;17.60;64.20;;;;;;5088785;27;45972;-68
2022/03/16 12:57:55;;;;;;;3.80;3.70;;;17.70;63.40;;;;;;5088375;27;44065;-69
2022/03/16 13:00:30;;;;;;;3.20;3.10;;;17.80;63.30;;;;;;5088285;27;43826;-68
2022/03/16 13:03:12;;;;;;;3.37;3.27;;;17.70;63.10;;;;;;5069977;27;44113;-68
2022/03/16 13:05:41;;;;;;;3.07;2.97;;;17.70;63.30;;;;;;5087232;27;43954;-69
2022/03/16 13:08:08;;;;;;;3.40;3.30;;;17.60;63.50;;;;;;5087414;27;43767;-69
2022/03/16 13:11:14;;;;;;;3.30;3.20;;;17.60;63.70;;;;;;5086188;27;43454;-68
2022/03/16 13:13:27;;;;;;;3.07;3.00;;;17.50;63.80;;;;;;5080743;27;43972;-68
2022/03/16 13:16:01;;;;;;;2.90;2.83;;;17.50;64.10;;;;;;5087374;27;43978;-68
2022/03/16 13:18:30;;;;;;;2.90;2.90;;;17.40;64.10;;;;;;5068688;27;44818;-69
2022/03/16 13:20:58;;;;;;;3.40;3.30;;;17.40;64.20;;;;;;5087622;27;43857;-69
2022/03/16 13:23:30;;;;;;;3.33;3.23;;;17.40;64.30;;;;;;5087631;27;43460;-68